sensor_id;sensor_type;location;lat;lon;timestamp;P1;durP1;ratioP1;P2;durP2;ratioP2
76566;SDS011;65428;53.194;6.132;2023-04-24T00:01:32;9.87;;;8.97;;
76566;SDS011;65428;53.194;6.132;2023-04-24T00:03:59;10.68;;;9.68;;
76566;SDS011;65428;53.194;6.132;2023-04-24T00:06:28;11.23;;;10.23;;
76566;SDS011;65428;53.194;6.132;2023-04-24T00:09:02;10.52;;;9.52;;
76566;SDS011;65428;53.194;6.132;2023-04-24T00:11:29;9.80;;;8.90;;
76566;SDS011;65428;53.194;6.132;2023-04-24T00:13:55;8.77;;;7.97;;
76566;SDS011;65428;53.194;6.132;2023-04-24T00:16:21;7.60;;;7.00;;
76566;SDS011;65428;53.194;6.132;2023-04-24T00:18:47;8.20;;;7.50;;
76566;SDS011;65428;53.194;6.132;2023-04-24T00:21:13;7.80;;;7.20;;
76566;SDS011;65428;53.194;6.132;2023-04-24T00:23:41;7.78;;;7.07;;
76566;SDS011;65428;53.194;6.132;2023-04-24T00:26:06;6.93;;;6.30;;
76566;SDS011;65428;53.194;6.132;2023-04-24T00:28:33;7.60;;;6.90;;
76566;SDS011;65428;53.194;6.132;2023-04-24T00:30:58;7.60;;;7.00;;
76566;SDS011;65428;53.194;6.132;2023-04-24T00:33:24;8.50;;;7.70;;
76566;SDS011;65428;53.194;6.132;2023-04-24T00:35:49;8.87;;;8.07;;
76566;SDS011;65428;53.194;6.132;2023-04-24T00:38:15;8.90;;;8.10;;
76566;SDS011;65428;53.194;6.132;2023-04-24T00:40:41;9.10;;;8.30;;
76566;SDS011;65428;53.194;6.132;2023-04-24T00:43:06;9.97;;;9.07;;
76566;SDS011;65428;53.194;6.132;2023-04-24T00:45:32;8.90;;;8.10;;
76566;SDS011;65428;53.194;6.132;2023-04-24T00:47:58;10.13;;;9.15;;
76566;SDS011;65428;53.194;6.132;2023-04-24T00:50:25;10.73;;;9.70;;
76566;SDS011;65428;53.194;6.132;2023-04-24T00:52:51;9.70;;;8.80;;
76566;SDS011;65428;53.194;6.132;2023-04-24T00:55:17;10.18;;;9.18;;
76566;SDS011;65428;53.194;6.132;2023-04-24T00:57:43;10.63;;;9.63;;
76566;SDS011;65428;53.194;6.132;2023-04-24T01:00:10;9.70;;;8.88;;
76566;SDS011;65428;53.194;6.132;2023-04-24T01:02:41;9.23;;;8.43;;
76566;SDS011;65428;53.194;6.132;2023-04-24T01:05:12;9.83;;;8.93;;
76566;SDS011;65428;53.194;6.132;2023-04-24T01:07:40;9.10;;;8.20;;
76566;SDS011;65428;53.194;6.132;2023-04-24T01:10:10;8.02;;;7.40;;
76566;SDS011;65428;53.194;6.132;2023-04-24T01:12:38;7.18;;;6.47;;
76566;SDS011;65428;53.194;6.132;2023-04-24T01:15:04;7.63;;;6.93;;
76566;SDS011;65428;53.194;6.132;2023-04-24T01:17:31;7.55;;;6.85;;
76566;SDS011;65428;53.194;6.132;2023-04-24T01:19:57;7.60;;;6.90;;
76566;SDS011;65428;53.194;6.132;2023-04-24T01:22:25;6.82;;;6.15;;
76566;SDS011;65428;53.194;6.132;2023-04-24T01:24:52;7.22;;;6.53;;
76566;SDS011;65428;53.194;6.132;2023-04-24T01:27:18;7.57;;;6.88;;
76566;SDS011;65428;53.194;6.132;2023-04-24T01:29:44;7.47;;;6.78;;
76566;SDS011;65428;53.194;6.132;2023-04-24T01:32:10;7.50;;;6.90;;
76566;SDS011;65428;53.194;6.132;2023-04-24T01:34:37;8.57;;;7.30;;
76566;SDS011;65428;53.194;6.132;2023-04-24T01:37:03;8.10;;;7.40;;
76566;SDS011;65428;53.194;6.132;2023-04-24T01:39:30;7.85;;;7.15;;
76566;SDS011;65428;53.194;6.132;2023-04-24T01:41:56;8.10;;;7.30;;
76566;SDS011;65428;53.194;6.132;2023-04-24T01:44:22;7.80;;;7.10;;
76566;SDS011;65428;53.194;6.132;2023-04-24T01:46:48;8.27;;;7.57;;
76566;SDS011;65428;53.194;6.132;2023-04-24T01:49:14;9.27;;;8.40;;
76566;SDS011;65428;53.194;6.132;2023-04-24T01:51:40;8.10;;;7.30;;
76566;SDS011;65428;53.194;6.132;2023-04-24T01:54:06;9.02;;;8.23;;
76566;SDS011;65428;53.194;6.132;2023-04-24T01:56:33;7.53;;;6.90;;
76566;SDS011;65428;53.194;6.132;2023-04-24T01:59:02;8.82;;;8.02;;
76566;SDS011;65428;53.194;6.132;2023-04-24T02:01:33;8.50;;;7.70;;
76566;SDS011;65428;53.194;6.132;2023-04-24T02:04:01;8.75;;;7.85;;
76566;SDS011;65428;53.194;6.132;2023-04-24T02:06:26;8.07;;;7.38;;
76566;SDS011;65428;53.194;6.132;2023-04-24T02:08:52;8.10;;;7.37;;
76566;SDS011;65428;53.194;6.132;2023-04-24T02:11:18;8.67;;;7.80;;
76566;SDS011;65428;53.194;6.132;2023-04-24T02:13:44;8.07;;;7.40;;
76566;SDS011;65428;53.194;6.132;2023-04-24T02:16:10;8.13;;;7.43;;
76566;SDS011;65428;53.194;6.132;2023-04-24T02:18:36;7.55;;;6.93;;
76566;SDS011;65428;53.194;6.132;2023-04-24T02:21:02;8.70;;;7.90;;
76566;SDS011;65428;53.194;6.132;2023-04-24T02:23:28;8.73;;;7.95;;
76566;SDS011;65428;53.194;6.132;2023-04-24T02:25:54;8.88;;;8.07;;
76566;SDS011;65428;53.194;6.132;2023-04-24T02:28:20;8.18;;;7.47;;
76566;SDS011;65428;53.194;6.132;2023-04-24T02:30:46;10.73;;;9.65;;
76566;SDS011;65428;53.194;6.132;2023-04-24T02:33:12;9.75;;;8.85;;
76566;SDS011;65428;53.194;6.132;2023-04-24T02:35:37;9.60;;;8.77;;
76566;SDS011;65428;53.194;6.132;2023-04-24T02:38:03;9.38;;;8.57;;
76566;SDS011;65428;53.194;6.132;2023-04-24T02:40:29;10.45;;;9.45;;
76566;SDS011;65428;53.194;6.132;2023-04-24T02:42:55;11.13;;;10.02;;
76566;SDS011;65428;53.194;6.132;2023-04-24T02:45:20;11.60;;;10.47;;
76566;SDS011;65428;53.194;6.132;2023-04-24T02:47:46;12.80;;;11.50;;
76566;SDS011;65428;53.194;6.132;2023-04-24T02:50:12;12.52;;;11.32;;
76566;SDS011;65428;53.194;6.132;2023-04-24T02:52:41;13.50;;;12.20;;
76566;SDS011;65428;53.194;6.132;2023-04-24T02:55:06;13.13;;;11.80;;
76566;SDS011;65428;53.194;6.132;2023-04-24T02:57:33;13.93;;;12.52;;
76566;SDS011;65428;53.194;6.132;2023-04-24T02:59:59;13.00;;;11.80;;
76566;SDS011;65428;53.194;6.132;2023-04-24T03:02:25;13.40;;;12.20;;
76566;SDS011;65428;53.194;6.132;2023-04-24T03:04:51;13.73;;;12.43;;
76566;SDS011;65428;53.194;6.132;2023-04-24T03:07:16;14.37;;;13.00;;
76566;SDS011;65428;53.194;6.132;2023-04-24T03:09:45;14.30;;;12.90;;
76566;SDS011;65428;53.194;6.132;2023-04-24T03:12:12;14.77;;;13.38;;
76566;SDS011;65428;53.194;6.132;2023-04-24T03:14:38;16.65;;;14.85;;
76566;SDS011;65428;53.194;6.132;2023-04-24T03:17:03;19.47;;;16.57;;
76566;SDS011;65428;53.194;6.132;2023-04-24T03:19:29;16.80;;;15.20;;
76566;SDS011;65428;53.194;6.132;2023-04-24T03:21:55;17.77;;;15.88;;
76566;SDS011;65428;53.194;6.132;2023-04-24T03:24:21;16.97;;;15.27;;
76566;SDS011;65428;53.194;6.132;2023-04-24T03:26:47;16.42;;;14.90;;
76566;SDS011;65428;53.194;6.132;2023-04-24T03:29:13;17.90;;;16.10;;
76566;SDS011;65428;53.194;6.132;2023-04-24T03:31:38;17.43;;;15.67;;
76566;SDS011;65428;53.194;6.132;2023-04-24T03:34:04;17.13;;;15.52;;
76566;SDS011;65428;53.194;6.132;2023-04-24T03:36:30;17.43;;;15.73;;
76566;SDS011;65428;53.194;6.132;2023-04-24T03:38:56;20.60;;;17.10;;
76566;SDS011;65428;53.194;6.132;2023-04-24T03:41:21;19.73;;;16.50;;
76566;SDS011;65428;53.194;6.132;2023-04-24T03:43:47;16.55;;;14.48;;
76566;SDS011;65428;53.194;6.132;2023-04-24T03:46:13;13.60;;;11.65;;
76566;SDS011;65428;53.194;6.132;2023-04-24T03:48:40;14.20;;;11.50;;
76566;SDS011;65428;53.194;6.132;2023-04-24T03:51:05;13.25;;;10.70;;
76566;SDS011;65428;53.194;6.132;2023-04-24T03:53:31;11.23;;;9.40;;
76566;SDS011;65428;53.194;6.132;2023-04-24T03:55:56;13.02;;;9.80;;
76566;SDS011;65428;53.194;6.132;2023-04-24T03:58:22;10.23;;;8.87;;
76566;SDS011;65428;53.194;6.132;2023-04-24T04:00:48;8.97;;;6.83;;
76566;SDS011;65428;53.194;6.132;2023-04-24T04:03:14;9.52;;;7.57;;
76566;SDS011;65428;53.194;6.132;2023-04-24T04:05:40;8.97;;;6.60;;
76566;SDS011;65428;53.194;6.132;2023-04-24T04:08:06;6.35;;;5.75;;
76566;SDS011;65428;53.194;6.132;2023-04-24T04:10:32;6.55;;;5.70;;
76566;SDS011;65428;53.194;6.132;2023-04-24T04:12:57;5.03;;;3.97;;
76566;SDS011;65428;53.194;6.132;2023-04-24T04:15:23;5.83;;;4.80;;
76566;SDS011;65428;53.194;6.132;2023-04-24T04:17:49;3.90;;;2.80;;
76566;SDS011;65428;53.194;6.132;2023-04-24T04:20:14;4.40;;;3.70;;
76566;SDS011;65428;53.194;6.132;2023-04-24T04:22:40;3.30;;;3.00;;
76566;SDS011;65428;53.194;6.132;2023-04-24T04:25:06;2.83;;;2.17;;
76566;SDS011;65428;53.194;6.132;2023-04-24T04:27:33;4.20;;;3.40;;
76566;SDS011;65428;53.194;6.132;2023-04-24T04:30:03;4.57;;;4.07;;
76566;SDS011;65428;53.194;6.132;2023-04-24T04:32:32;5.80;;;5.13;;
76566;SDS011;65428;53.194;6.132;2023-04-24T04:34:58;6.07;;;5.47;;
76566;SDS011;65428;53.194;6.132;2023-04-24T04:37:37;8.25;;;6.70;;
76566;SDS011;65428;53.194;6.132;2023-04-24T04:40:03;6.75;;;5.85;;
76566;SDS011;65428;53.194;6.132;2023-04-24T04:42:31;6.20;;;5.00;;
76566;SDS011;65428;53.194;6.132;2023-04-24T04:44:59;4.03;;;2.97;;
76566;SDS011;65428;53.194;6.132;2023-04-24T04:47:25;4.63;;;3.80;;
76566;SDS011;65428;53.194;6.132;2023-04-24T04:49:52;8.60;;;4.70;;
76566;SDS011;65428;53.194;6.132;2023-04-24T04:52:18;7.30;;;4.23;;
76566;SDS011;65428;53.194;6.132;2023-04-24T04:54:44;5.50;;;4.30;;
76566;SDS011;65428;53.194;6.132;2023-04-24T04:57:10;5.80;;;4.27;;
76566;SDS011;65428;53.194;6.132;2023-04-24T04:59:35;7.72;;;4.63;;
76566;SDS011;65428;53.194;6.132;2023-04-24T05:02:02;5.47;;;4.40;;
76566;SDS011;65428;53.194;6.132;2023-04-24T05:04:28;5.83;;;3.60;;
76566;SDS011;65428;53.194;6.132;2023-04-24T05:06:53;5.88;;;4.30;;
76566;SDS011;65428;53.194;6.132;2023-04-24T05:09:19;6.22;;;4.30;;
76566;SDS011;65428;53.194;6.132;2023-04-24T05:11:45;6.00;;;5.20;;
76566;SDS011;65428;53.194;6.132;2023-04-24T05:14:10;7.15;;;4.88;;
76566;SDS011;65428;53.194;6.132;2023-04-24T05:16:37;7.32;;;5.32;;
76566;SDS011;65428;53.194;6.132;2023-04-24T05:19:04;7.82;;;6.43;;
76566;SDS011;65428;53.194;6.132;2023-04-24T05:21:30;7.70;;;6.20;;
76566;SDS011;65428;53.194;6.132;2023-04-24T05:23:56;7.90;;;6.70;;
76566;SDS011;65428;53.194;6.132;2023-04-24T05:26:21;8.05;;;7.22;;
76566;SDS011;65428;53.194;6.132;2023-04-24T05:28:48;9.02;;;8.00;;
76566;SDS011;65428;53.194;6.132;2023-04-24T05:31:13;9.95;;;8.48;;
76566;SDS011;65428;53.194;6.132;2023-04-24T05:33:39;9.35;;;8.35;;
76566;SDS011;65428;53.194;6.132;2023-04-24T05:36:05;12.00;;;9.50;;
76566;SDS011;65428;53.194;6.132;2023-04-24T05:38:31;11.25;;;9.13;;
76566;SDS011;65428;53.194;6.132;2023-04-24T05:40:57;9.70;;;8.70;;
76566;SDS011;65428;53.194;6.132;2023-04-24T05:43:23;13.57;;;10.27;;
76566;SDS011;65428;53.194;6.132;2023-04-24T05:45:48;10.93;;;9.75;;
76566;SDS011;65428;53.194;6.132;2023-04-24T05:48:14;11.82;;;10.20;;
76566;SDS011;65428;53.194;6.132;2023-04-24T05:50:40;13.82;;;11.93;;
76566;SDS011;65428;53.194;6.132;2023-04-24T05:53:06;13.15;;;11.18;;
76566;SDS011;65428;53.194;6.132;2023-04-24T05:55:32;15.93;;;12.70;;
76566;SDS011;65428;53.194;6.132;2023-04-24T05:57:58;15.02;;;12.18;;
76566;SDS011;65428;53.194;6.132;2023-04-24T06:00:24;12.30;;;8.93;;
76566;SDS011;65428;53.194;6.132;2023-04-24T06:02:51;9.93;;;8.15;;
76566;SDS011;65428;53.194;6.132;2023-04-24T06:05:17;10.23;;;7.90;;
76566;SDS011;65428;53.194;6.132;2023-04-24T06:07:44;8.02;;;6.82;;
76566;SDS011;65428;53.194;6.132;2023-04-24T06:10:10;6.85;;;5.95;;
76566;SDS011;65428;53.194;6.132;2023-04-24T06:12:36;6.13;;;5.22;;
76566;SDS011;65428;53.194;6.132;2023-04-24T06:15:02;6.30;;;5.20;;
76566;SDS011;65428;53.194;6.132;2023-04-24T06:17:28;4.72;;;3.00;;
76566;SDS011;65428;53.194;6.132;2023-04-24T06:19:55;7.57;;;3.10;;
76566;SDS011;65428;53.194;6.132;2023-04-24T06:22:21;4.83;;;2.13;;
76566;SDS011;65428;53.194;6.132;2023-04-24T06:24:46;4.65;;;1.75;;
76566;SDS011;65428;53.194;6.132;2023-04-24T06:27:13;4.10;;;1.53;;
76566;SDS011;65428;53.194;6.132;2023-04-24T06:29:39;4.47;;;1.77;;
76566;SDS011;65428;53.194;6.132;2023-04-24T06:32:04;3.95;;;1.85;;
76566;SDS011;65428;53.194;6.132;2023-04-24T06:34:30;4.57;;;1.90;;
76566;SDS011;65428;53.194;6.132;2023-04-24T06:36:57;3.38;;;1.73;;
76566;SDS011;65428;53.194;6.132;2023-04-24T06:39:23;5.03;;;2.13;;
76566;SDS011;65428;53.194;6.132;2023-04-24T06:41:49;3.33;;;2.13;;
76566;SDS011;65428;53.194;6.132;2023-04-24T06:44:14;3.45;;;1.98;;
76566;SDS011;65428;53.194;6.132;2023-04-24T06:46:40;4.00;;;2.13;;
76566;SDS011;65428;53.194;6.132;2023-04-24T06:49:06;5.60;;;2.60;;
76566;SDS011;65428;53.194;6.132;2023-04-24T06:51:32;5.65;;;2.45;;
76566;SDS011;65428;53.194;6.132;2023-04-24T06:53:58;5.23;;;1.70;;
76566;SDS011;65428;53.194;6.132;2023-04-24T06:56:24;5.97;;;1.95;;
76566;SDS011;65428;53.194;6.132;2023-04-24T06:58:50;4.43;;;1.50;;
76566;SDS011;65428;53.194;6.132;2023-04-24T07:01:16;5.10;;;1.70;;
76566;SDS011;65428;53.194;6.132;2023-04-24T07:03:42;5.00;;;1.50;;
76566;SDS011;65428;53.194;6.132;2023-04-24T07:06:08;5.85;;;2.58;;
76566;SDS011;65428;53.194;6.132;2023-04-24T07:08:37;5.45;;;2.53;;
76566;SDS011;65428;53.194;6.132;2023-04-24T07:11:03;7.47;;;3.38;;
76566;SDS011;65428;53.194;6.132;2023-04-24T07:13:29;6.35;;;3.53;;
76566;SDS011;65428;53.194;6.132;2023-04-24T07:15:55;12.10;;;7.63;;
76566;SDS011;65428;53.194;6.132;2023-04-24T07:18:21;14.25;;;9.73;;
76566;SDS011;65428;53.194;6.132;2023-04-24T07:20:47;17.40;;;12.10;;
76566;SDS011;65428;53.194;6.132;2023-04-24T07:23:15;16.58;;;12.20;;
76566;SDS011;65428;53.194;6.132;2023-04-24T07:25:41;17.17;;;13.07;;
76566;SDS011;65428;53.194;6.132;2023-04-24T07:28:07;20.25;;;14.27;;
76566;SDS011;65428;53.194;6.132;2023-04-24T07:30:33;19.80;;;13.88;;
76566;SDS011;65428;53.194;6.132;2023-04-24T07:32:59;21.83;;;14.13;;
76566;SDS011;65428;53.194;6.132;2023-04-24T07:35:25;20.02;;;14.25;;
76566;SDS011;65428;53.194;6.132;2023-04-24T07:37:55;19.48;;;14.23;;
76566;SDS011;65428;53.194;6.132;2023-04-24T07:40:21;19.92;;;13.27;;
76566;SDS011;65428;53.194;6.132;2023-04-24T07:42:47;16.10;;;12.40;;
76566;SDS011;65428;53.194;6.132;2023-04-24T07:45:13;18.73;;;13.52;;
76566;SDS011;65428;53.194;6.132;2023-04-24T07:47:43;18.27;;;13.88;;
76566;SDS011;65428;53.194;6.132;2023-04-24T07:50:10;19.00;;;14.10;;
76566;SDS011;65428;53.194;6.132;2023-04-24T07:52:36;21.88;;;15.50;;
76566;SDS011;65428;53.194;6.132;2023-04-24T07:55:02;20.30;;;14.97;;
76566;SDS011;65428;53.194;6.132;2023-04-24T07:57:28;19.65;;;14.32;;
76566;SDS011;65428;53.194;6.132;2023-04-24T07:59:54;18.40;;;13.85;;
76566;SDS011;65428;53.194;6.132;2023-04-24T08:02:20;21.30;;;15.70;;
76566;SDS011;65428;53.194;6.132;2023-04-24T08:04:51;23.40;;;17.10;;
76566;SDS011;65428;53.194;6.132;2023-04-24T08:07:19;25.42;;;16.98;;
76566;SDS011;65428;53.194;6.132;2023-04-24T08:09:45;19.90;;;16.17;;
76566;SDS011;65428;53.194;6.132;2023-04-24T08:12:10;20.08;;;15.82;;
76566;SDS011;65428;53.194;6.132;2023-04-24T08:14:36;18.87;;;15.00;;
76566;SDS011;65428;53.194;6.132;2023-04-24T08:17:01;19.00;;;15.53;;
76566;SDS011;65428;53.194;6.132;2023-04-24T08:19:28;20.48;;;15.48;;
76566;SDS011;65428;53.194;6.132;2023-04-24T08:21:54;15.45;;;13.38;;
76566;SDS011;65428;53.194;6.132;2023-04-24T08:24:20;19.00;;;14.37;;
76566;SDS011;65428;53.194;6.132;2023-04-24T08:26:46;16.73;;;13.75;;
76566;SDS011;65428;53.194;6.132;2023-04-24T08:29:15;16.10;;;12.20;;
76566;SDS011;65428;53.194;6.132;2023-04-24T08:31:41;13.53;;;10.47;;
76566;SDS011;65428;53.194;6.132;2023-04-24T08:34:07;15.90;;;11.27;;
76566;SDS011;65428;53.194;6.132;2023-04-24T08:36:32;13.40;;;9.47;;
76566;SDS011;65428;53.194;6.132;2023-04-24T08:38:58;11.95;;;9.30;;
76566;SDS011;65428;53.194;6.132;2023-04-24T08:41:24;15.35;;;9.95;;
76566;SDS011;65428;53.194;6.132;2023-04-24T08:43:51;11.83;;;7.83;;
76566;SDS011;65428;53.194;6.132;2023-04-24T08:46:18;11.37;;;7.57;;
76566;SDS011;65428;53.194;6.132;2023-04-24T08:48:45;11.60;;;8.13;;
76566;SDS011;65428;53.194;6.132;2023-04-24T08:51:10;12.77;;;9.40;;
76566;SDS011;65428;53.194;6.132;2023-04-24T08:53:36;10.73;;;7.50;;
76566;SDS011;65428;53.194;6.132;2023-04-24T08:56:03;11.00;;;7.95;;
76566;SDS011;65428;53.194;6.132;2023-04-24T08:58:29;11.38;;;7.65;;
76566;SDS011;65428;53.194;6.132;2023-04-24T09:00:56;11.35;;;7.60;;
76566;SDS011;65428;53.194;6.132;2023-04-24T09:03:24;11.43;;;8.10;;
76566;SDS011;65428;53.194;6.132;2023-04-24T09:05:53;9.77;;;6.65;;
76566;SDS011;65428;53.194;6.132;2023-04-24T09:08:20;11.25;;;6.22;;
76566;SDS011;65428;53.194;6.132;2023-04-24T09:10:50;12.25;;;6.22;;
76566;SDS011;65428;53.194;6.132;2023-04-24T09:13:15;12.88;;;6.10;;
76566;SDS011;65428;53.194;6.132;2023-04-24T09:15:42;11.20;;;6.38;;
76566;SDS011;65428;53.194;6.132;2023-04-24T09:18:08;10.48;;;5.07;;
76566;SDS011;65428;53.194;6.132;2023-04-24T09:20:34;8.18;;;4.05;;
76566;SDS011;65428;53.194;6.132;2023-04-24T09:23:01;9.73;;;4.07;;
76566;SDS011;65428;53.194;6.132;2023-04-24T09:25:33;6.47;;;3.03;;
76566;SDS011;65428;53.194;6.132;2023-04-24T09:28:03;9.73;;;3.40;;
76566;SDS011;65428;53.194;6.132;2023-04-24T09:30:30;5.88;;;2.60;;
76566;SDS011;65428;53.194;6.132;2023-04-24T09:35:51;7.00;;;2.20;;
76566;SDS011;65428;53.194;6.132;2023-04-24T09:38:17;8.73;;;2.50;;
76566;SDS011;65428;53.194;6.132;2023-04-24T09:40:43;8.60;;;2.27;;
76566;SDS011;65428;53.194;6.132;2023-04-24T09:43:12;9.90;;;3.00;;
76566;SDS011;65428;53.194;6.132;2023-04-24T09:45:38;9.77;;;3.00;;
76566;SDS011;65428;53.194;6.132;2023-04-24T09:48:05;10.98;;;3.47;;
76566;SDS011;65428;53.194;6.132;2023-04-24T09:50:33;10.23;;;3.28;;
76566;SDS011;65428;53.194;6.132;2023-04-24T09:53:03;10.88;;;3.03;;
76566;SDS011;65428;53.194;6.132;2023-04-24T09:55:30;8.15;;;2.67;;
76566;SDS011;65428;53.194;6.132;2023-04-24T09:58:00;9.15;;;2.33;;
76566;SDS011;65428;53.194;6.132;2023-04-24T10:02:57;8.20;;;1.52;;
76566;SDS011;65428;53.194;6.132;2023-04-24T10:05:25;7.82;;;2.33;;
76566;SDS011;65428;53.194;6.132;2023-04-24T10:08:06;7.10;;;2.00;;
76566;SDS011;65428;53.194;6.132;2023-04-24T10:10:34;8.27;;;1.65;;
76566;SDS011;65428;53.194;6.132;2023-04-24T10:13:03;5.93;;;1.58;;
76566;SDS011;65428;53.194;6.132;2023-04-24T10:15:29;7.07;;;1.67;;
76566;SDS011;65428;53.194;6.132;2023-04-24T10:17:55;6.57;;;1.70;;
76566;SDS011;65428;53.194;6.132;2023-04-24T10:20:24;8.00;;;1.65;;
76566;SDS011;65428;53.194;6.132;2023-04-24T10:22:52;8.48;;;1.73;;
76566;SDS011;65428;53.194;6.132;2023-04-24T10:25:19;6.93;;;1.50;;
76566;SDS011;65428;53.194;6.132;2023-04-24T10:27:46;7.63;;;1.48;;
76566;SDS011;65428;53.194;6.132;2023-04-24T10:30:13;7.72;;;1.65;;
76566;SDS011;65428;53.194;6.132;2023-04-24T10:32:40;7.63;;;1.10;;
76566;SDS011;65428;53.194;6.132;2023-04-24T10:35:06;6.65;;;1.05;;
76566;SDS011;65428;53.194;6.132;2023-04-24T10:37:37;8.50;;;1.50;;
76566;SDS011;65428;53.194;6.132;2023-04-24T10:40:09;6.70;;;1.40;;
76566;SDS011;65428;53.194;6.132;2023-04-24T10:42:35;6.87;;;1.37;;
76566;SDS011;65428;53.194;6.132;2023-04-24T10:45:06;6.30;;;1.03;;
76566;SDS011;65428;53.194;6.132;2023-04-24T10:47:40;8.60;;;1.20;;
76566;SDS011;65428;53.194;6.132;2023-04-24T10:50:10;4.82;;;1.33;;
76566;SDS011;65428;53.194;6.132;2023-04-24T10:52:48;6.90;;;0.93;;
76566;SDS011;65428;53.194;6.132;2023-04-24T10:58:04;8.30;;;1.25;;
76566;SDS011;65428;53.194;6.132;2023-04-24T11:00:30;6.80;;;1.30;;
76566;SDS011;65428;53.194;6.132;2023-04-24T11:02:56;8.43;;;1.20;;
76566;SDS011;65428;53.194;6.132;2023-04-24T11:05:22;7.32;;;1.15;;
76566;SDS011;65428;53.194;6.132;2023-04-24T11:08:14;7.13;;;1.35;;
76566;SDS011;65428;53.194;6.132;2023-04-24T11:10:46;5.87;;;0.80;;
76566;SDS011;65428;53.194;6.132;2023-04-24T11:13:22;8.88;;;1.52;;
76566;SDS011;65428;53.194;6.132;2023-04-24T11:16:12;6.03;;;1.00;;
76566;SDS011;65428;53.194;6.132;2023-04-24T11:19:00;9.82;;;1.08;;
76566;SDS011;65428;53.194;6.132;2023-04-24T11:21:28;5.45;;;0.60;;
76566;SDS011;65428;53.194;6.132;2023-04-24T11:23:57;4.70;;;0.60;;
76566;SDS011;65428;53.194;6.132;2023-04-24T11:26:23;5.15;;;0.63;;
76566;SDS011;65428;53.194;6.132;2023-04-24T11:29:06;3.60;;;0.40;;
76566;SDS011;65428;53.194;6.132;2023-04-24T11:31:44;4.57;;;0.90;;
76566;SDS011;65428;53.194;6.132;2023-04-24T11:34:15;3.63;;;0.70;;
76566;SDS011;65428;53.194;6.132;2023-04-24T11:36:47;5.45;;;0.52;;
76566;SDS011;65428;53.194;6.132;2023-04-24T11:39:14;3.28;;;0.70;;
76566;SDS011;65428;53.194;6.132;2023-04-24T11:41:40;4.85;;;0.70;;
76566;SDS011;65428;53.194;6.132;2023-04-24T11:44:06;4.40;;;0.80;;
76566;SDS011;65428;53.194;6.132;2023-04-24T11:46:33;3.55;;;0.40;;
76566;SDS011;65428;53.194;6.132;2023-04-24T11:48:59;5.38;;;0.50;;
76566;SDS011;65428;53.194;6.132;2023-04-24T11:51:26;3.97;;;0.55;;
76566;SDS011;65428;53.194;6.132;2023-04-24T11:53:53;5.15;;;0.50;;
76566;SDS011;65428;53.194;6.132;2023-04-24T11:56:23;3.78;;;0.40;;
76566;SDS011;65428;53.194;6.132;2023-04-24T11:58:51;4.53;;;0.45;;
76566;SDS011;65428;53.194;6.132;2023-04-24T12:01:18;3.53;;;0.30;;
76566;SDS011;65428;53.194;6.132;2023-04-24T12:03:48;4.73;;;0.57;;
76566;SDS011;65428;53.194;6.132;2023-04-24T12:06:15;4.20;;;0.52;;
76566;SDS011;65428;53.194;6.132;2023-04-24T12:08:41;2.97;;;0.40;;
76566;SDS011;65428;53.194;6.132;2023-04-24T12:11:10;3.10;;;0.55;;
76566;SDS011;65428;53.194;6.132;2023-04-24T12:13:37;3.60;;;0.50;;
76566;SDS011;65428;53.194;6.132;2023-04-24T12:16:03;4.70;;;0.60;;
76566;SDS011;65428;53.194;6.132;2023-04-24T12:18:30;6.03;;;0.90;;
76566;SDS011;65428;53.194;6.132;2023-04-24T12:21:03;7.65;;;1.00;;
76566;SDS011;65428;53.194;6.132;2023-04-24T12:23:42;5.45;;;0.40;;
76566;SDS011;65428;53.194;6.132;2023-04-24T12:26:08;7.55;;;0.90;;
76566;SDS011;65428;53.194;6.132;2023-04-24T12:28:35;4.95;;;0.55;;
76566;SDS011;65428;53.194;6.132;2023-04-24T12:31:01;5.35;;;0.57;;
76566;SDS011;65428;53.194;6.132;2023-04-24T12:33:27;6.97;;;0.60;;
76566;SDS011;65428;53.194;6.132;2023-04-24T12:35:57;4.45;;;0.35;;
76566;SDS011;65428;53.194;6.132;2023-04-24T12:38:23;3.22;;;0.30;;
76566;SDS011;65428;53.194;6.132;2023-04-24T12:41:04;3.97;;;0.30;;
76566;SDS011;65428;53.194;6.132;2023-04-24T12:43:31;3.55;;;0.25;;
76566;SDS011;65428;53.194;6.132;2023-04-24T12:45:57;2.78;;;0.10;;
76566;SDS011;65428;53.194;6.132;2023-04-24T12:48:24;4.55;;;0.30;;
76566;SDS011;65428;53.194;6.132;2023-04-24T12:50:50;2.47;;;0.30;;
76566;SDS011;65428;53.194;6.132;2023-04-24T12:53:16;3.60;;;0.30;;
76566;SDS011;65428;53.194;6.132;2023-04-24T12:55:42;2.50;;;0.20;;
76566;SDS011;65428;53.194;6.132;2023-04-24T12:58:09;2.13;;;0.32;;
76566;SDS011;65428;53.194;6.132;2023-04-24T13:00:35;2.53;;;0.25;;
76566;SDS011;65428;53.194;6.132;2023-04-24T13:03:01;2.55;;;0.10;;
76566;SDS011;65428;53.194;6.132;2023-04-24T13:05:27;3.38;;;0.20;;
76566;SDS011;65428;53.194;6.132;2023-04-24T13:07:53;2.23;;;0.30;;
76566;SDS011;65428;53.194;6.132;2023-04-24T13:10:19;2.60;;;0.20;;
76566;SDS011;65428;53.194;6.132;2023-04-24T13:12:44;1.83;;;0.10;;
76566;SDS011;65428;53.194;6.132;2023-04-24T13:15:11;3.38;;;0.20;;
76566;SDS011;65428;53.194;6.132;2023-04-24T13:17:37;3.03;;;0.30;;
76566;SDS011;65428;53.194;6.132;2023-04-24T13:20:02;3.33;;;0.20;;
76566;SDS011;65428;53.194;6.132;2023-04-24T13:22:29;2.67;;;0.30;;
76566;SDS011;65428;53.194;6.132;2023-04-24T13:24:55;2.42;;;0.25;;
76566;SDS011;65428;53.194;6.132;2023-04-24T13:27:21;4.43;;;0.32;;
76566;SDS011;65428;53.194;6.132;2023-04-24T13:29:46;4.70;;;0.40;;
76566;SDS011;65428;53.194;6.132;2023-04-24T13:32:12;3.60;;;0.40;;
76566;SDS011;65428;53.194;6.132;2023-04-24T13:34:38;5.73;;;0.50;;
76566;SDS011;65428;53.194;6.132;2023-04-24T13:37:04;4.72;;;0.75;;
76566;SDS011;65428;53.194;6.132;2023-04-24T13:39:30;7.57;;;0.82;;
76566;SDS011;65428;53.194;6.132;2023-04-24T13:41:56;6.35;;;1.17;;
76566;SDS011;65428;53.194;6.132;2023-04-24T13:44:22;10.52;;;1.67;;
76566;SDS011;65428;53.194;6.132;2023-04-24T13:46:50;9.15;;;1.25;;
76566;SDS011;65428;53.194;6.132;2023-04-24T13:49:19;5.77;;;1.00;;
76566;SDS011;65428;53.194;6.132;2023-04-24T13:51:46;10.18;;;1.48;;
76566;SDS011;65428;53.194;6.132;2023-04-24T13:54:11;9.77;;;1.37;;
76566;SDS011;65428;53.194;6.132;2023-04-24T13:56:38;8.50;;;1.40;;
76566;SDS011;65428;53.194;6.132;2023-04-24T13:59:05;7.37;;;1.23;;
76566;SDS011;65428;53.194;6.132;2023-04-24T14:01:30;6.50;;;0.87;;
76566;SDS011;65428;53.194;6.132;2023-04-24T14:03:56;5.90;;;0.80;;
76566;SDS011;65428;53.194;6.132;2023-04-24T14:06:22;5.03;;;0.73;;
76566;SDS011;65428;53.194;6.132;2023-04-24T14:08:48;4.50;;;0.80;;
76566;SDS011;65428;53.194;6.132;2023-04-24T14:11:15;4.53;;;0.70;;
76566;SDS011;65428;53.194;6.132;2023-04-24T14:13:42;4.40;;;0.60;;
76566;SDS011;65428;53.194;6.132;2023-04-24T14:16:08;4.35;;;0.80;;
76566;SDS011;65428;53.194;6.132;2023-04-24T14:18:35;4.70;;;1.27;;
76566;SDS011;65428;53.194;6.132;2023-04-24T14:21:01;6.82;;;1.42;;
76566;SDS011;65428;53.194;6.132;2023-04-24T14:23:27;6.10;;;1.27;;
76566;SDS011;65428;53.194;6.132;2023-04-24T14:25:53;4.93;;;1.30;;
76566;SDS011;65428;53.194;6.132;2023-04-24T14:28:20;9.40;;;1.77;;
76566;SDS011;65428;53.194;6.132;2023-04-24T14:30:46;8.93;;;1.55;;
76566;SDS011;65428;53.194;6.132;2023-04-24T14:33:12;8.27;;;1.80;;
76566;SDS011;65428;53.194;6.132;2023-04-24T14:35:42;11.18;;;1.80;;
76566;SDS011;65428;53.194;6.132;2023-04-24T14:38:08;9.85;;;2.10;;
76566;SDS011;65428;53.194;6.132;2023-04-24T14:40:34;11.02;;;1.98;;
76566;SDS011;65428;53.194;6.132;2023-04-24T14:43:00;9.65;;;2.40;;
76566;SDS011;65428;53.194;6.132;2023-04-24T14:45:26;12.18;;;2.40;;
76566;SDS011;65428;53.194;6.132;2023-04-24T14:47:52;10.90;;;2.40;;